TimeEST,TemperatureF,Dew PointF,Humidity,Sea Level PressureIn,VisibilityMPH,Wind Direction,Wind SpeedMPH,Gust SpeedMPH,PrecipitationIn,Events,Conditions,WindDirDegrees,DateUTC
12:56 AM,25.2,20.1,81,29.97,6.0,NW,6.9,-,N/A,,Haze,310,2013-02-24 05:56:00
1:38 AM,24.8,19.4,80,29.95,6.0,West,3.5,-,N/A,,Mostly Cloudy,280,2013-02-24 06:38:00
1:56 AM,25.2,21.0,84,29.99,6.0,WNW,5.8,-,N/A,,Overcast,300,2013-02-24 06:56:00
2:56 AM,26.1,21.0,81,30.00,6.0,NW,8.1,-,N/A,,Haze,310,2013-02-24 07:56:00
3:17 AM,26.6,19.4,74,29.96,6.0,WNW,12.7,-,N/A,,Haze,290,2013-02-24 08:17:00
3:25 AM,24.8,19.4,80,29.96,7.0,NW,11.5,-,N/A,,Overcast,310,2013-02-24 08:25:00
3:56 AM,25.2,19.0,78,30.00,7.0,WNW,11.5,-,N/A,,Overcast,300,2013-02-24 08:56:00
4:42 AM,24.8,19.4,80,29.98,6.0,WNW,10.4,-,N/A,,Haze,300,2013-02-24 09:42:00
4:56 AM,25.2,19.0,78,30.03,7.0,West,11.5,-,N/A,,Overcast,280,2013-02-24 09:56:00
5:56 AM,25.2,19.0,78,30.04,6.0,WNW,8.1,-,N/A,,Haze,300,2013-02-24 10:56:00
6:14 AM,24.8,17.6,74,30.01,6.0,WNW,12.7,-,N/A,,Haze,300,2013-02-24 11:14:00
6:56 AM,24.1,17.1,75,30.06,7.0,NW,10.4,-,N/A,,Overcast,310,2013-02-24 11:56:00
7:56 AM,24.1,18.1,78,30.08,6.0,NW,10.4,-,N/A,,Haze,310,2013-02-24 12:56:00
8:56 AM,25.2,16.2,69,30.11,6.0,NW,9.2,-,N/A,,Haze,310,2013-02-24 13:56:00
9:56 AM,26.1,17.1,69,30.13,6.0,WNW,11.5,-,N/A,,Haze,290,2013-02-24 14:56:00
10:56 AM,27.1,17.1,66,30.14,6.0,WNW,11.5,-,N/A,,Haze,300,2013-02-24 15:56:00
11:56 AM,29.1,18.1,64,30.14,7.0,WNW,11.5,-,N/A,,Mostly Cloudy,300,2013-02-24 16:56:00
12:56 PM,30.0,19.0,64,30.14,7.0,WNW,12.7,-,N/A,,Overcast,290,2013-02-24 17:56:00
1:03 PM,30.2,19.4,64,30.10,7.0,NW,13.8,-,N/A,,Overcast,310,2013-02-24 18:03:00
1:10 PM,30.2,19.4,64,30.10,7.0,NW,11.5,-,N/A,,Overcast,310,2013-02-24 18:10:00
1:19 PM,30.2,19.4,64,30.10,7.0,NW,10.4,-,N/A,,Overcast,310,2013-02-24 18:19:00
1:43 PM,30.2,19.4,64,30.10,7.0,WNW,12.7,-,N/A,,Overcast,290,2013-02-24 18:43:00
1:56 PM,31.1,19.0,61,30.14,7.0,West,12.7,-,N/A,,Overcast,280,2013-02-24 18:56:00
2:56 PM,32.0,20.1,62,30.13,6.0,NW,6.9,-,N/A,,Haze,310,2013-02-24 19:56:00
3:56 PM,34.0,20.1,57,30.13,7.0,NNW,10.4,-,N/A,,Mostly Cloudy,340,2013-02-24 20:56:00
4:56 PM,32.9,19.0,57,30.15,7.0,WNW,5.8,-,N/A,,Partly Cloudy,290,2013-02-24 21:56:00
5:56 PM,32.0,20.1,62,30.17,7.0,NW,4.6,-,N/A,,Clear,310,2013-02-24 22:56:00
6:56 PM,31.1,18.1,59,30.17,8.0,North,3.5,-,N/A,,Clear,350,2013-02-24 23:56:00
7:56 PM,28.0,18.1,66,30.18,8.0,Calm,Calm,-,N/A,,Clear,0,2013-02-25 00:56:00
8:56 PM,28.0,18.1,66,30.19,8.0,Calm,Calm,-,N/A,,Clear,0,2013-02-25 01:56:00
9:56 PM,24.1,19.0,81,30.20,8.0,Calm,Calm,-,N/A,,Clear,0,2013-02-25 02:56:00
10:56 PM,24.1,18.1,78,30.20,7.0,Calm,Calm,-,N/A,,Clear,0,2013-02-25 03:56:00
11:56 PM,19.0,16.2,89,30.19,6.0,ENE,4.6,-,N/A,,Clear,70,2013-02-25 04:56:00